sensor_id;sensor_type;location;lat;lon;timestamp;temperature;humidity
57108;DHT22;42987;52.916;6.542;2022-12-07T00:01:27;3.30;99.90
57108;DHT22;42987;52.916;6.542;2022-12-07T00:03:54;3.20;99.90
57108;DHT22;42987;52.916;6.542;2022-12-07T00:06:22;3.10;99.90
57108;DHT22;42987;52.916;6.542;2022-12-07T00:08:48;3.00;99.90
57108;DHT22;42987;52.916;6.542;2022-12-07T00:11:17;3.00;99.90
57108;DHT22;42987;52.916;6.542;2022-12-07T00:13:43;2.90;99.90
57108;DHT22;42987;52.916;6.542;2022-12-07T00:16:12;2.90;99.90
57108;DHT22;42987;52.916;6.542;2022-12-07T00:18:39;3.00;99.90
57108;DHT22;42987;52.916;6.542;2022-12-07T00:21:11;3.00;99.90
57108;DHT22;42987;52.916;6.542;2022-12-07T00:23:42;3.10;99.90
57108;DHT22;42987;52.916;6.542;2022-12-07T00:26:10;3.10;99.90
57108;DHT22;42987;52.916;6.542;2022-12-07T00:28:37;3.20;99.90
57108;DHT22;42987;52.916;6.542;2022-12-07T00:31:08;3.20;99.90
57108;DHT22;42987;52.916;6.542;2022-12-07T00:33:34;3.20;99.90
57108;DHT22;42987;52.916;6.542;2022-12-07T00:36:01;3.20;99.90
57108;DHT22;42987;52.916;6.542;2022-12-07T00:38:32;3.20;99.90
57108;DHT22;42987;52.916;6.542;2022-12-07T00:40:59;3.20;99.90
57108;DHT22;42987;52.916;6.542;2022-12-07T00:43:26;3.10;99.90
57108;DHT22;42987;52.916;6.542;2022-12-07T00:45:52;3.10;99.90
57108;DHT22;42987;52.916;6.542;2022-12-07T00:48:19;3.10;99.90
57108;DHT22;42987;52.916;6.542;2022-12-07T00:50:44;3.10;99.90
57108;DHT22;42987;52.916;6.542;2022-12-07T00:53:10;3.10;99.90
57108;DHT22;42987;52.916;6.542;2022-12-07T00:55:36;3.10;99.90
57108;DHT22;42987;52.916;6.542;2022-12-07T00:58:02;3.10;99.90
57108;DHT22;42987;52.916;6.542;2022-12-07T01:00:32;3.10;99.90
57108;DHT22;42987;52.916;6.542;2022-12-07T01:03:00;3.10;99.90
57108;DHT22;42987;52.916;6.542;2022-12-07T01:05:25;3.10;99.90
57108;DHT22;42987;52.916;6.542;2022-12-07T01:07:51;3.10;99.90
57108;DHT22;42987;52.916;6.542;2022-12-07T01:10:17;3.10;99.90
57108;DHT22;42987;52.916;6.542;2022-12-07T01:12:43;3.10;99.90
57108;DHT22;42987;52.916;6.542;2022-12-07T01:15:09;3.10;99.90
57108;DHT22;42987;52.916;6.542;2022-12-07T01:17:35;3.10;99.90
57108;DHT22;42987;52.916;6.542;2022-12-07T01:20:01;3.10;99.90
57108;DHT22;42987;52.916;6.542;2022-12-07T01:22:27;3.00;99.90
57108;DHT22;42987;52.916;6.542;2022-12-07T01:24:53;3.00;99.90
57108;DHT22;42987;52.916;6.542;2022-12-07T01:27:19;3.10;99.90
57108;DHT22;42987;52.916;6.542;2022-12-07T01:29:44;3.10;99.90
57108;DHT22;42987;52.916;6.542;2022-12-07T01:32:10;3.10;99.90
57108;DHT22;42987;52.916;6.542;2022-12-07T01:34:36;3.10;99.90
57108;DHT22;42987;52.916;6.542;2022-12-07T01:37:02;3.10;99.90
57108;DHT22;42987;52.916;6.542;2022-12-07T01:39:31;3.10;99.90
57108;DHT22;42987;52.916;6.542;2022-12-07T01:41:57;3.20;99.90
57108;DHT22;42987;52.916;6.542;2022-12-07T01:44:24;3.20;99.90
57108;DHT22;42987;52.916;6.542;2022-12-07T01:46:52;3.10;99.90
57108;DHT22;42987;52.916;6.542;2022-12-07T01:49:33;3.20;99.90
57108;DHT22;42987;52.916;6.542;2022-12-07T01:52:25;3.20;99.90
57108;DHT22;42987;52.916;6.542;2022-12-07T01:54:55;3.30;99.90
57108;DHT22;42987;52.916;6.542;2022-12-07T01:57:23;3.30;99.90
57108;DHT22;42987;52.916;6.542;2022-12-07T01:59:50;3.30;99.90
57108;DHT22;42987;52.916;6.542;2022-12-07T02:02:20;3.30;99.90
57108;DHT22;42987;52.916;6.542;2022-12-07T02:04:49;3.30;99.90
57108;DHT22;42987;52.916;6.542;2022-12-07T02:07:20;3.40;99.90
57108;DHT22;42987;52.916;6.542;2022-12-07T02:09:46;3.50;99.90
57108;DHT22;42987;52.916;6.542;2022-12-07T02:12:12;3.50;99.90
57108;DHT22;42987;52.916;6.542;2022-12-07T02:14:37;3.40;99.90
57108;DHT22;42987;52.916;6.542;2022-12-07T02:17:27;3.40;99.90
57108;DHT22;42987;52.916;6.542;2022-12-07T02:25:23;3.30;99.90
57108;DHT22;42987;52.916;6.542;2022-12-07T02:28:09;3.30;99.90
57108;DHT22;42987;52.916;6.542;2022-12-07T02:30:45;3.20;99.90
57108;DHT22;42987;52.916;6.542;2022-12-07T02:33:23;3.20;99.90
57108;DHT22;42987;52.916;6.542;2022-12-07T02:36:04;3.20;99.90
57108;DHT22;42987;52.916;6.542;2022-12-07T02:39:03;3.10;99.90
57108;DHT22;42987;52.916;6.542;2022-12-07T02:41:42;3.10;99.90
57108;DHT22;42987;52.916;6.542;2022-12-07T02:44:19;3.10;99.90
57108;DHT22;42987;52.916;6.542;2022-12-07T02:46:55;3.10;99.90
57108;DHT22;42987;52.916;6.542;2022-12-07T02:49:27;3.10;99.90
57108;DHT22;42987;52.916;6.542;2022-12-07T02:51:53;3.10;99.90
57108;DHT22;42987;52.916;6.542;2022-12-07T02:54:20;3.10;99.90
57108;DHT22;42987;52.916;6.542;2022-12-07T02:56:56;3.10;99.90
57108;DHT22;42987;52.916;6.542;2022-12-07T03:02:46;3.10;99.90
57108;DHT22;42987;52.916;6.542;2022-12-07T03:11:16;3.10;99.90
57108;DHT22;42987;52.916;6.542;2022-12-07T03:13:49;3.10;99.90
57108;DHT22;42987;52.916;6.542;2022-12-07T03:16:27;3.10;99.90
57108;DHT22;42987;52.916;6.542;2022-12-07T03:19:00;3.20;99.90
57108;DHT22;42987;52.916;6.542;2022-12-07T03:21:32;3.30;99.90
57108;DHT22;42987;52.916;6.542;2022-12-07T03:24:02;3.30;99.90
57108;DHT22;42987;52.916;6.542;2022-12-07T03:26:40;3.30;99.90
57108;DHT22;42987;52.916;6.542;2022-12-07T03:29:38;3.30;99.90
57108;DHT22;42987;52.916;6.542;2022-12-07T03:32:13;3.30;99.90
57108;DHT22;42987;52.916;6.542;2022-12-07T03:34:46;3.20;99.90
57108;DHT22;42987;52.916;6.542;2022-12-07T03:37:20;3.20;99.90
57108;DHT22;42987;52.916;6.542;2022-12-07T03:39:52;3.20;99.90
57108;DHT22;42987;52.916;6.542;2022-12-07T03:42:22;3.10;99.90
57108;DHT22;42987;52.916;6.542;2022-12-07T03:44:49;3.10;99.90
57108;DHT22;42987;52.916;6.542;2022-12-07T03:50:15;3.10;99.90
57108;DHT22;42987;52.916;6.542;2022-12-07T03:53:05;3.20;99.90
57108;DHT22;42987;52.916;6.542;2022-12-07T03:55:36;3.20;99.90
57108;DHT22;42987;52.916;6.542;2022-12-07T03:58:12;3.10;99.90
57108;DHT22;42987;52.916;6.542;2022-12-07T04:00:41;3.10;99.90
57108;DHT22;42987;52.916;6.542;2022-12-07T04:03:07;3.10;99.90
57108;DHT22;42987;52.916;6.542;2022-12-07T04:05:33;3.20;99.90
57108;DHT22;42987;52.916;6.542;2022-12-07T04:07:59;3.20;99.90
57108;DHT22;42987;52.916;6.542;2022-12-07T04:10:25;3.20;99.90
57108;DHT22;42987;52.916;6.542;2022-12-07T04:12:51;3.20;99.90
57108;DHT22;42987;52.916;6.542;2022-12-07T04:15:17;3.20;99.90
57108;DHT22;42987;52.916;6.542;2022-12-07T04:17:43;3.20;99.90
57108;DHT22;42987;52.916;6.542;2022-12-07T04:20:09;3.20;99.90
57108;DHT22;42987;52.916;6.542;2022-12-07T04:22:35;3.20;99.90
57108;DHT22;42987;52.916;6.542;2022-12-07T04:25:01;3.10;99.90
57108;DHT22;42987;52.916;6.542;2022-12-07T04:27:27;3.10;99.90
57108;DHT22;42987;52.916;6.542;2022-12-07T04:29:53;3.10;99.90
57108;DHT22;42987;52.916;6.542;2022-12-07T04:32:20;3.00;99.90
57108;DHT22;42987;52.916;6.542;2022-12-07T04:34:46;3.00;99.90
57108;DHT22;42987;52.916;6.542;2022-12-07T04:37:12;3.00;99.90
57108;DHT22;42987;52.916;6.542;2022-12-07T04:39:37;3.00;99.90
57108;DHT22;42987;52.916;6.542;2022-12-07T04:42:03;3.00;99.90
57108;DHT22;42987;52.916;6.542;2022-12-07T04:44:29;3.00;99.90
57108;DHT22;42987;52.916;6.542;2022-12-07T04:46:56;3.10;99.90
57108;DHT22;42987;52.916;6.542;2022-12-07T04:49:23;3.10;99.90
57108;DHT22;42987;52.916;6.542;2022-12-07T04:51:50;3.00;99.90
57108;DHT22;42987;52.916;6.542;2022-12-07T04:54:17;3.00;99.90
57108;DHT22;42987;52.916;6.542;2022-12-07T04:56:43;3.00;99.90
57108;DHT22;42987;52.916;6.542;2022-12-07T04:59:13;2.90;99.90
57108;DHT22;42987;52.916;6.542;2022-12-07T05:01:40;2.90;99.90
57108;DHT22;42987;52.916;6.542;2022-12-07T05:04:09;2.80;99.90
57108;DHT22;42987;52.916;6.542;2022-12-07T05:06:35;2.70;99.90
57108;DHT22;42987;52.916;6.542;2022-12-07T05:09:02;2.70;99.90
57108;DHT22;42987;52.916;6.542;2022-12-07T05:11:28;2.60;99.90
57108;DHT22;42987;52.916;6.542;2022-12-07T05:14:24;2.60;99.90
57108;DHT22;42987;52.916;6.542;2022-12-07T05:16:53;2.60;99.90
57108;DHT22;42987;52.916;6.542;2022-12-07T05:19:19;2.60;99.90
57108;DHT22;42987;52.916;6.542;2022-12-07T05:21:45;2.60;99.90
57108;DHT22;42987;52.916;6.542;2022-12-07T05:24:13;2.60;99.90
57108;DHT22;42987;52.916;6.542;2022-12-07T05:26:40;2.60;99.90
57108;DHT22;42987;52.916;6.542;2022-12-07T05:29:07;2.60;99.90
57108;DHT22;42987;52.916;6.542;2022-12-07T05:31:33;2.60;99.90
57108;DHT22;42987;52.916;6.542;2022-12-07T05:33:59;2.60;99.90
57108;DHT22;42987;52.916;6.542;2022-12-07T05:36:25;2.60;99.90
57108;DHT22;42987;52.916;6.542;2022-12-07T05:38:51;2.60;99.90
57108;DHT22;42987;52.916;6.542;2022-12-07T05:41:18;2.60;99.90
57108;DHT22;42987;52.916;6.542;2022-12-07T05:44:03;2.50;99.90
57108;DHT22;42987;52.916;6.542;2022-12-07T05:46:32;2.50;99.90
57108;DHT22;42987;52.916;6.542;2022-12-07T05:49:02;2.50;99.90
57108;DHT22;42987;52.916;6.542;2022-12-07T05:51:28;2.40;99.90
57108;DHT22;42987;52.916;6.542;2022-12-07T05:53:54;2.40;99.90
57108;DHT22;42987;52.916;6.542;2022-12-07T05:56:20;2.30;99.90
57108;DHT22;42987;52.916;6.542;2022-12-07T05:58:46;2.30;99.90
57108;DHT22;42987;52.916;6.542;2022-12-07T06:01:30;2.30;99.90
57108;DHT22;42987;52.916;6.542;2022-12-07T06:03:56;2.20;99.90
57108;DHT22;42987;52.916;6.542;2022-12-07T06:06:21;2.30;99.90
57108;DHT22;42987;52.916;6.542;2022-12-07T06:08:47;2.20;99.90
57108;DHT22;42987;52.916;6.542;2022-12-07T06:11:13;2.20;99.90
57108;DHT22;42987;52.916;6.542;2022-12-07T06:13:57;2.30;99.90
57108;DHT22;42987;52.916;6.542;2022-12-07T06:16:23;2.20;99.90
57108;DHT22;42987;52.916;6.542;2022-12-07T06:18:49;2.30;99.90
57108;DHT22;42987;52.916;6.542;2022-12-07T06:21:14;2.30;99.90
57108;DHT22;42987;52.916;6.542;2022-12-07T06:23:40;2.40;99.90
57108;DHT22;42987;52.916;6.542;2022-12-07T06:26:06;2.40;99.90
57108;DHT22;42987;52.916;6.542;2022-12-07T06:28:32;2.40;99.90
57108;DHT22;42987;52.916;6.542;2022-12-07T06:30:59;2.50;99.90
57108;DHT22;42987;52.916;6.542;2022-12-07T06:33:25;2.50;99.90
57108;DHT22;42987;52.916;6.542;2022-12-07T06:35:51;2.60;99.90
57108;DHT22;42987;52.916;6.542;2022-12-07T06:38:17;2.60;99.90
57108;DHT22;42987;52.916;6.542;2022-12-07T06:40:43;2.60;99.90
57108;DHT22;42987;52.916;6.542;2022-12-07T06:43:09;2.70;99.90
57108;DHT22;42987;52.916;6.542;2022-12-07T06:45:34;2.60;99.90
57108;DHT22;42987;52.916;6.542;2022-12-07T06:48:00;2.70;99.90
57108;DHT22;42987;52.916;6.542;2022-12-07T06:50:29;2.70;99.90
57108;DHT22;42987;52.916;6.542;2022-12-07T06:52:55;2.70;99.90
57108;DHT22;42987;52.916;6.542;2022-12-07T06:55:21;2.70;99.90
57108;DHT22;42987;52.916;6.542;2022-12-07T06:57:47;2.70;99.90
57108;DHT22;42987;52.916;6.542;2022-12-07T07:00:13;2.80;99.90
57108;DHT22;42987;52.916;6.542;2022-12-07T07:02:39;2.80;99.90
57108;DHT22;42987;52.916;6.542;2022-12-07T07:05:05;2.80;99.90
57108;DHT22;42987;52.916;6.542;2022-12-07T07:07:31;2.90;99.90
57108;DHT22;42987;52.916;6.542;2022-12-07T07:09:57;2.90;99.90
57108;DHT22;42987;52.916;6.542;2022-12-07T07:12:22;2.90;99.90
57108;DHT22;42987;52.916;6.542;2022-12-07T07:14:48;3.00;99.90
57108;DHT22;42987;52.916;6.542;2022-12-07T07:17:14;3.00;99.90
57108;DHT22;42987;52.916;6.542;2022-12-07T07:19:40;3.00;99.90
57108;DHT22;42987;52.916;6.542;2022-12-07T07:22:05;3.00;99.90
57108;DHT22;42987;52.916;6.542;2022-12-07T07:24:31;3.00;99.90
57108;DHT22;42987;52.916;6.542;2022-12-07T07:26:57;2.90;99.90
57108;DHT22;42987;52.916;6.542;2022-12-07T07:29:23;2.90;99.90
57108;DHT22;42987;52.916;6.542;2022-12-07T07:31:52;2.90;99.90
57108;DHT22;42987;52.916;6.542;2022-12-07T07:34:18;2.80;99.90
57108;DHT22;42987;52.916;6.542;2022-12-07T07:36:44;2.80;99.90
57108;DHT22;42987;52.916;6.542;2022-12-07T07:39:10;2.80;99.90
57108;DHT22;42987;52.916;6.542;2022-12-07T07:41:38;2.80;99.90
57108;DHT22;42987;52.916;6.542;2022-12-07T07:44:04;2.80;99.90
57108;DHT22;42987;52.916;6.542;2022-12-07T07:46:30;2.80;99.90
57108;DHT22;42987;52.916;6.542;2022-12-07T07:48:56;2.90;99.90
57108;DHT22;42987;52.916;6.542;2022-12-07T07:51:22;2.80;99.90
57108;DHT22;42987;52.916;6.542;2022-12-07T07:53:48;2.90;99.90
57108;DHT22;42987;52.916;6.542;2022-12-07T07:56:13;2.90;99.90
57108;DHT22;42987;52.916;6.542;2022-12-07T07:58:40;3.00;99.90
57108;DHT22;42987;52.916;6.542;2022-12-07T08:01:06;3.00;99.90
57108;DHT22;42987;52.916;6.542;2022-12-07T08:03:32;3.00;99.90
57108;DHT22;42987;52.916;6.542;2022-12-07T08:06:04;2.90;99.90
57108;DHT22;42987;52.916;6.542;2022-12-07T08:08:30;2.90;99.90
57108;DHT22;42987;52.916;6.542;2022-12-07T08:10:56;2.90;99.90
57108;DHT22;42987;52.916;6.542;2022-12-07T08:13:26;2.90;99.90
57108;DHT22;42987;52.916;6.542;2022-12-07T08:15:51;2.90;99.90
57108;DHT22;42987;52.916;6.542;2022-12-07T08:18:17;3.00;99.90
57108;DHT22;42987;52.916;6.542;2022-12-07T08:20:44;2.90;99.90
57108;DHT22;42987;52.916;6.542;2022-12-07T08:23:10;2.90;99.90
57108;DHT22;42987;52.916;6.542;2022-12-07T08:25:36;2.80;99.90
57108;DHT22;42987;52.916;6.542;2022-12-07T08:28:02;2.80;99.90
57108;DHT22;42987;52.916;6.542;2022-12-07T08:30:31;2.80;99.90
57108;DHT22;42987;52.916;6.542;2022-12-07T08:32:57;2.80;99.90
57108;DHT22;42987;52.916;6.542;2022-12-07T08:35:27;2.70;99.90
57108;DHT22;42987;52.916;6.542;2022-12-07T08:37:52;2.70;99.90
57108;DHT22;42987;52.916;6.542;2022-12-07T08:40:18;2.70;99.90
57108;DHT22;42987;52.916;6.542;2022-12-07T08:42:51;2.80;99.90
57108;DHT22;42987;52.916;6.542;2022-12-07T08:45:18;2.90;99.90
57108;DHT22;42987;52.916;6.542;2022-12-07T08:48:07;3.00;99.90
57108;DHT22;42987;52.916;6.542;2022-12-07T08:50:36;3.10;99.90
57108;DHT22;42987;52.916;6.542;2022-12-07T08:53:04;3.10;99.90
57108;DHT22;42987;52.916;6.542;2022-12-07T08:55:31;3.10;99.90
57108;DHT22;42987;52.916;6.542;2022-12-07T08:58:01;3.10;99.90
57108;DHT22;42987;52.916;6.542;2022-12-07T09:00:27;3.10;99.90
57108;DHT22;42987;52.916;6.542;2022-12-07T09:02:54;3.10;99.90
57108;DHT22;42987;52.916;6.542;2022-12-07T09:05:20;3.00;99.90
57108;DHT22;42987;52.916;6.542;2022-12-07T09:07:48;3.00;99.90
57108;DHT22;42987;52.916;6.542;2022-12-07T09:10:16;3.00;99.90
57108;DHT22;42987;52.916;6.542;2022-12-07T09:12:42;3.00;99.90
57108;DHT22;42987;52.916;6.542;2022-12-07T09:15:08;3.00;99.90
57108;DHT22;42987;52.916;6.542;2022-12-07T09:17:34;2.90;99.90
57108;DHT22;42987;52.916;6.542;2022-12-07T09:20:02;2.90;99.90
57108;DHT22;42987;52.916;6.542;2022-12-07T09:22:31;3.00;99.90
57108;DHT22;42987;52.916;6.542;2022-12-07T09:25:00;3.00;99.90
57108;DHT22;42987;52.916;6.542;2022-12-07T09:27:26;3.00;99.90
57108;DHT22;42987;52.916;6.542;2022-12-07T09:29:52;3.10;99.90
57108;DHT22;42987;52.916;6.542;2022-12-07T09:32:18;3.20;99.90
57108;DHT22;42987;52.916;6.542;2022-12-07T09:34:44;3.30;99.90
57108;DHT22;42987;52.916;6.542;2022-12-07T09:37:10;3.40;99.90
57108;DHT22;42987;52.916;6.542;2022-12-07T09:39:40;3.50;99.90
57108;DHT22;42987;52.916;6.542;2022-12-07T09:42:06;3.70;99.90
57108;DHT22;42987;52.916;6.542;2022-12-07T09:44:33;3.80;99.90
57108;DHT22;42987;52.916;6.542;2022-12-07T09:47:00;3.80;99.90
57108;DHT22;42987;52.916;6.542;2022-12-07T09:49:29;3.90;99.90
57108;DHT22;42987;52.916;6.542;2022-12-07T09:54:39;4.00;99.90
57108;DHT22;42987;52.916;6.542;2022-12-07T09:57:08;4.00;99.90
57108;DHT22;42987;52.916;6.542;2022-12-07T09:59:39;4.10;99.90
57108;DHT22;42987;52.916;6.542;2022-12-07T10:02:25;4.10;99.90
57108;DHT22;42987;52.916;6.542;2022-12-07T10:04:53;4.10;99.90
57108;DHT22;42987;52.916;6.542;2022-12-07T10:07:19;4.10;99.90
57108;DHT22;42987;52.916;6.542;2022-12-07T10:09:45;4.10;99.90
57108;DHT22;42987;52.916;6.542;2022-12-07T10:12:11;4.10;99.90
57108;DHT22;42987;52.916;6.542;2022-12-07T10:17:41;4.20;99.90
57108;DHT22;42987;52.916;6.542;2022-12-07T10:20:15;4.20;99.90
57108;DHT22;42987;52.916;6.542;2022-12-07T10:22:55;4.20;99.90
57108;DHT22;42987;52.916;6.542;2022-12-07T10:25:22;4.20;99.90
57108;DHT22;42987;52.916;6.542;2022-12-07T10:30:56;4.20;99.90
57108;DHT22;42987;52.916;6.542;2022-12-07T10:35:56;4.40;99.90
57108;DHT22;42987;52.916;6.542;2022-12-07T10:38:25;4.20;99.90
57108;DHT22;42987;52.916;6.542;2022-12-07T10:41:06;4.40;99.90
57108;DHT22;42987;52.916;6.542;2022-12-07T10:43:32;4.50;99.90
57108;DHT22;42987;52.916;6.542;2022-12-07T10:51:30;4.70;99.90
57108;DHT22;42987;52.916;6.542;2022-12-07T10:59:59;4.80;99.90
57108;DHT22;42987;52.916;6.542;2022-12-07T11:10:53;4.70;99.90
57108;DHT22;42987;52.916;6.542;2022-12-07T11:14:03;4.80;99.90
57108;DHT22;42987;52.916;6.542;2022-12-07T11:22:03;4.80;99.90
57108;DHT22;42987;52.916;6.542;2022-12-07T11:24:55;4.80;99.90
57108;DHT22;42987;52.916;6.542;2022-12-07T11:27:47;4.90;99.90
57108;DHT22;42987;52.916;6.542;2022-12-07T11:30:18;4.90;99.90
57108;DHT22;42987;52.916;6.542;2022-12-07T11:38:26;4.90;99.90
57108;DHT22;42987;52.916;6.542;2022-12-07T11:40:58;4.90;99.90
57108;DHT22;42987;52.916;6.542;2022-12-07T11:43:53;4.90;99.90
57108;DHT22;42987;52.916;6.542;2022-12-07T11:46:20;4.90;99.90
57108;DHT22;42987;52.916;6.542;2022-12-07T11:49:07;4.90;99.90
57108;DHT22;42987;52.916;6.542;2022-12-07T11:51:37;5.00;99.90
57108;DHT22;42987;52.916;6.542;2022-12-07T11:54:32;5.00;99.90
57108;DHT22;42987;52.916;6.542;2022-12-07T11:57:05;5.10;99.90
57108;DHT22;42987;52.916;6.542;2022-12-07T11:59:47;5.20;99.90
57108;DHT22;42987;52.916;6.542;2022-12-07T12:02:41;5.20;99.90
57108;DHT22;42987;52.916;6.542;2022-12-07T12:07:40;5.40;99.90
57108;DHT22;42987;52.916;6.542;2022-12-07T12:10:21;5.40;99.90
57108;DHT22;42987;52.916;6.542;2022-12-07T12:25:56;5.50;99.90
57108;DHT22;42987;52.916;6.542;2022-12-07T12:31:15;5.60;99.90
57108;DHT22;42987;52.916;6.542;2022-12-07T12:34:04;5.60;99.90
57108;DHT22;42987;52.916;6.542;2022-12-07T12:36:48;5.70;99.90
57108;DHT22;42987;52.916;6.542;2022-12-07T12:39:16;5.70;99.90
57108;DHT22;42987;52.916;6.542;2022-12-07T12:46:56;5.80;99.90
57108;DHT22;42987;52.916;6.542;2022-12-07T12:57:31;5.70;99.90
57108;DHT22;42987;52.916;6.542;2022-12-07T13:00:01;5.60;99.90
57108;DHT22;42987;52.916;6.542;2022-12-07T13:02:35;5.60;99.90
57108;DHT22;42987;52.916;6.542;2022-12-07T13:10:35;5.30;99.90
57108;DHT22;42987;52.916;6.542;2022-12-07T13:23:54;4.90;99.90
57108;DHT22;42987;52.916;6.542;2022-12-07T13:28:50;4.70;99.90
57108;DHT22;42987;52.916;6.542;2022-12-07T13:31:47;4.70;99.90
57108;DHT22;42987;52.916;6.542;2022-12-07T13:37:04;4.60;99.90
57108;DHT22;42987;52.916;6.542;2022-12-07T13:39:45;4.60;99.90
57108;DHT22;42987;52.916;6.542;2022-12-07T13:44:48;4.60;99.90
57108;DHT22;42987;52.916;6.542;2022-12-07T13:49:53;4.60;99.90
57108;DHT22;42987;52.916;6.542;2022-12-07T13:52:22;4.60;99.90
57108;DHT22;42987;52.916;6.542;2022-12-07T13:55:01;4.60;99.90
57108;DHT22;42987;52.916;6.542;2022-12-07T13:57:29;4.60;99.90
57108;DHT22;42987;52.916;6.542;2022-12-07T13:59:56;4.60;99.90
57108;DHT22;42987;52.916;6.542;2022-12-07T14:02:34;4.60;99.90
57108;DHT22;42987;52.916;6.542;2022-12-07T14:05:15;4.60;99.90
57108;DHT22;42987;52.916;6.542;2022-12-07T14:07:54;4.60;99.90
57108;DHT22;42987;52.916;6.542;2022-12-07T14:10:27;4.60;99.90
57108;DHT22;42987;52.916;6.542;2022-12-07T14:12:55;4.60;99.90
57108;DHT22;42987;52.916;6.542;2022-12-07T14:15:29;4.60;99.90
57108;DHT22;42987;52.916;6.542;2022-12-07T14:18:00;4.50;99.90
57108;DHT22;42987;52.916;6.542;2022-12-07T14:20:38;4.50;99.90
57108;DHT22;42987;52.916;6.542;2022-12-07T14:23:05;4.50;99.90
57108;DHT22;42987;52.916;6.542;2022-12-07T14:25:51;4.50;99.90
57108;DHT22;42987;52.916;6.542;2022-12-07T14:28:27;4.40;99.90
57108;DHT22;42987;52.916;6.542;2022-12-07T14:30:54;4.40;99.90
57108;DHT22;42987;52.916;6.542;2022-12-07T14:33:21;4.40;99.90
57108;DHT22;42987;52.916;6.542;2022-12-07T14:35:47;4.40;99.90
57108;DHT22;42987;52.916;6.542;2022-12-07T14:38:13;4.40;99.90
57108;DHT22;42987;52.916;6.542;2022-12-07T14:40:39;4.40;99.90
57108;DHT22;42987;52.916;6.542;2022-12-07T14:43:10;4.40;99.90
57108;DHT22;42987;52.916;6.542;2022-12-07T14:45:37;4.40;99.90
57108;DHT22;42987;52.916;6.542;2022-12-07T14:48:03;4.40;99.90
57108;DHT22;42987;52.916;6.542;2022-12-07T14:50:29;4.40;99.90
57108;DHT22;42987;52.916;6.542;2022-12-07T14:53:14;4.40;99.90
57108;DHT22;42987;52.916;6.542;2022-12-07T14:55:40;4.40;99.90
57108;DHT22;42987;52.916;6.542;2022-12-07T14:58:13;4.40;99.90
57108;DHT22;42987;52.916;6.542;2022-12-07T15:00:39;4.40;99.90
57108;DHT22;42987;52.916;6.542;2022-12-07T15:03:05;4.40;99.90
57108;DHT22;42987;52.916;6.542;2022-12-07T15:05:31;4.40;99.90
57108;DHT22;42987;52.916;6.542;2022-12-07T15:07:56;4.40;99.90
57108;DHT22;42987;52.916;6.542;2022-12-07T15:10:28;4.40;99.90
57108;DHT22;42987;52.916;6.542;2022-12-07T15:12:57;4.40;99.90
57108;DHT22;42987;52.916;6.542;2022-12-07T15:15:44;4.40;99.90
57108;DHT22;42987;52.916;6.542;2022-12-07T15:18:10;4.40;99.90
57108;DHT22;42987;52.916;6.542;2022-12-07T15:20:35;4.40;99.90
57108;DHT22;42987;52.916;6.542;2022-12-07T15:23:01;4.40;99.90
57108;DHT22;42987;52.916;6.542;2022-12-07T15:25:27;4.40;99.90
57108;DHT22;42987;52.916;6.542;2022-12-07T15:27:52;4.40;99.90
57108;DHT22;42987;52.916;6.542;2022-12-07T15:30:18;4.40;99.90
57108;DHT22;42987;52.916;6.542;2022-12-07T15:32:48;4.40;99.90
57108;DHT22;42987;52.916;6.542;2022-12-07T15:35:14;4.40;99.90
57108;DHT22;42987;52.916;6.542;2022-12-07T15:37:40;4.40;99.90
57108;DHT22;42987;52.916;6.542;2022-12-07T15:40:06;4.40;99.90
57108;DHT22;42987;52.916;6.542;2022-12-07T15:42:32;4.40;99.90
57108;DHT22;42987;52.916;6.542;2022-12-07T15:44:58;4.40;99.90
57108;DHT22;42987;52.916;6.542;2022-12-07T15:47:38;4.40;99.90
57108;DHT22;42987;52.916;6.542;2022-12-07T15:50:07;4.30;99.90
57108;DHT22;42987;52.916;6.542;2022-12-07T15:52:33;4.30;99.90
57108;DHT22;42987;52.916;6.542;2022-12-07T15:54:59;4.20;99.90
57108;DHT22;42987;52.916;6.542;2022-12-07T15:57:26;4.40;99.90
57108;DHT22;42987;52.916;6.542;2022-12-07T15:59:52;4.30;99.90
57108;DHT22;42987;52.916;6.542;2022-12-07T16:02:18;4.20;99.90
57108;DHT22;42987;52.916;6.542;2022-12-07T16:04:44;4.20;99.90
57108;DHT22;42987;52.916;6.542;2022-12-07T16:07:11;4.20;99.90
57108;DHT22;42987;52.916;6.542;2022-12-07T16:09:37;4.10;99.90
57108;DHT22;42987;52.916;6.542;2022-12-07T16:12:03;4.10;99.90
57108;DHT22;42987;52.916;6.542;2022-12-07T16:14:29;4.10;99.90
57108;DHT22;42987;52.916;6.542;2022-12-07T16:16:57;4.10;99.90
57108;DHT22;42987;52.916;6.542;2022-12-07T16:19:23;4.10;99.90
57108;DHT22;42987;52.916;6.542;2022-12-07T16:21:49;4.10;99.90
57108;DHT22;42987;52.916;6.542;2022-12-07T16:24:14;4.10;99.90
57108;DHT22;42987;52.916;6.542;2022-12-07T16:26:42;4.10;99.90
57108;DHT22;42987;52.916;6.542;2022-12-07T16:29:13;4.20;99.90
57108;DHT22;42987;52.916;6.542;2022-12-07T16:31:39;4.10;99.90
57108;DHT22;42987;52.916;6.542;2022-12-07T16:34:05;4.10;99.90
57108;DHT22;42987;52.916;6.542;2022-12-07T16:36:31;4.10;99.90
57108;DHT22;42987;52.916;6.542;2022-12-07T16:38:59;4.00;99.90
57108;DHT22;42987;52.916;6.542;2022-12-07T16:41:24;4.00;99.90
57108;DHT22;42987;52.916;6.542;2022-12-07T16:43:50;4.00;99.90
57108;DHT22;42987;52.916;6.542;2022-12-07T16:46:16;4.00;99.90
57108;DHT22;42987;52.916;6.542;2022-12-07T16:48:43;3.90;99.90
57108;DHT22;42987;52.916;6.542;2022-12-07T16:51:10;3.90;99.90
57108;DHT22;42987;52.916;6.542;2022-12-07T16:53:38;3.90;99.90
57108;DHT22;42987;52.916;6.542;2022-12-07T16:56:04;3.80;99.90
57108;DHT22;42987;52.916;6.542;2022-12-07T16:58:30;3.80;99.90
57108;DHT22;42987;52.916;6.542;2022-12-07T17:00:56;3.80;99.90
57108;DHT22;42987;52.916;6.542;2022-12-07T17:03:22;3.80;99.90
57108;DHT22;42987;52.916;6.542;2022-12-07T17:05:48;3.70;99.90
57108;DHT22;42987;52.916;6.542;2022-12-07T17:08:14;3.70;99.90
57108;DHT22;42987;52.916;6.542;2022-12-07T17:10:43;3.70;99.90
57108;DHT22;42987;52.916;6.542;2022-12-07T17:13:10;3.70;99.90
57108;DHT22;42987;52.916;6.542;2022-12-07T17:16:02;3.70;99.90
57108;DHT22;42987;52.916;6.542;2022-12-07T17:18:33;3.70;99.90
57108;DHT22;42987;52.916;6.542;2022-12-07T17:21:08;3.70;99.90
57108;DHT22;42987;52.916;6.542;2022-12-07T17:23:36;3.70;99.90
57108;DHT22;42987;52.916;6.542;2022-12-07T17:26:10;3.70;99.90
57108;DHT22;42987;52.916;6.542;2022-12-07T17:28:37;3.70;99.90
57108;DHT22;42987;52.916;6.542;2022-12-07T17:31:08;3.70;99.90
57108;DHT22;42987;52.916;6.542;2022-12-07T17:33:34;3.70;99.90
57108;DHT22;42987;52.916;6.542;2022-12-07T17:36:01;3.60;99.90
57108;DHT22;42987;52.916;6.542;2022-12-07T17:38:31;3.60;99.90
57108;DHT22;42987;52.916;6.542;2022-12-07T17:40:56;3.50;99.90
57108;DHT22;42987;52.916;6.542;2022-12-07T17:43:22;3.50;99.90
57108;DHT22;42987;52.916;6.542;2022-12-07T17:45:48;3.40;99.90
57108;DHT22;42987;52.916;6.542;2022-12-07T17:48:13;3.40;99.90
57108;DHT22;42987;52.916;6.542;2022-12-07T17:50:39;3.40;99.90
57108;DHT22;42987;52.916;6.542;2022-12-07T17:53:24;3.40;99.90
57108;DHT22;42987;52.916;6.542;2022-12-07T17:55:52;3.30;99.90
57108;DHT22;42987;52.916;6.542;2022-12-07T17:58:19;3.30;99.90